Startpagina
METAR-TAF:

METAR-TAF

Vliegvelden :

Awg-1, Nederland

Productieplatform

breedte: 53-29-30N, lengte: 5-56-30E, hoogte: 33 m

Actueel weer

Dit bericht is 25 minuten geleden gemaakt, om 05:55 UTC
Wind 30 kt uit het oostzuidoosten
Temperatuur 1°C
Vochtigheid 100%
Druk 982 hPa
Zicht: 5000 m
Weinig wolken op 200 ft
Verspreide wolken op 500 ft
Gebroken wolken op 900 ft
lichte regen

METAR: EHMA 180555Z AUTO 11030KT 5000 -RA FEW002 SCT005 BKN009 01/01 Q0982 W///H///

Tijdstip: 07:20 (06:20 UTC)


TAF: ontbreekt

Waarnemingen en weersverwachtingen van meer dan 4000 vliegvelden (METAR en TAF).

De beschikbare stations zijn de gele en rode punten op de kaart.

Ga met uw muis naar het station om de naam te zien.

Klik dan om waarnemingen en weersverwachtingen te zien.

kaart wijzigen: klik op de groene knoppen met een zwart kruis om in te zoomen, op de groene knop met een streepje om uit te zoomen of op de groene pijlen voor aangrenzende kaarten.


METAR-TAF: